createdAt,value
2023-02-11T00:01:38.006Z,-6.92
2023-02-11T00:04:06.382Z,-7.02
2023-02-11T00:06:37.872Z,-6.84
2023-02-11T00:09:09.032Z,-6.77
2023-02-11T00:11:36.504Z,-6.73
2023-02-11T00:14:06.175Z,-6.58
2023-02-11T00:16:33.828Z,-6.49
2023-02-11T00:19:05.468Z,-6.61
2023-02-11T00:21:38.470Z,-6.51
2023-02-11T00:24:06.066Z,-7.01
2023-02-11T00:26:35.349Z,-7.26
2023-02-11T00:29:05.998Z,-7.32
2023-02-11T00:31:36.785Z,-7.22
2023-02-11T00:34:06.617Z,-7.23
2023-02-11T00:36:33.904Z,-7.27
2023-02-11T00:39:01.401Z,-7.08
2023-02-11T00:41:29.564Z,-6.94
2023-02-11T00:44:00.475Z,-6.53
2023-02-11T00:46:27.895Z,-6.86
2023-02-11T00:48:58.545Z,-6.86
2023-02-11T00:51:29.366Z,-6.80
2023-02-11T00:53:59.837Z,-6.90
2023-02-11T00:56:27.371Z,-6.87
2023-02-11T00:58:54.702Z,-7.20
2023-02-11T01:01:22.326Z,-7.27
2023-02-11T01:03:52.931Z,-7.14
2023-02-11T01:06:20.486Z,-7.15
2023-02-11T01:08:50.356Z,-7.39
2023-02-11T01:11:20.928Z,-7.13
2023-02-11T01:13:49.754Z,-7.34
2023-02-11T01:16:18.040Z,-7.44
2023-02-11T01:18:48.712Z,-7.49
2023-02-11T01:21:18.027Z,-7.69
2023-02-11T01:23:45.330Z,-7.65
2023-02-11T01:26:13.797Z,-7.60
2023-02-11T01:28:42.145Z,-7.73
2023-02-11T01:31:09.510Z,-7.74
2023-02-11T01:33:37.812Z,-7.59
2023-02-11T01:36:06.441Z,-7.71
2023-02-11T01:38:38.031Z,-7.83
2023-02-11T01:41:08.751Z,-7.95
2023-02-11T01:43:46.970Z,-7.83
2023-02-11T01:46:14.286Z,-8.07
2023-02-11T01:48:47.786Z,-7.84
2023-02-11T01:51:23.959Z,-7.74
2023-02-11T01:53:53.098Z,-7.71
2023-02-11T01:56:21.279Z,-7.81
2023-02-11T01:58:51.566Z,-8.29
2023-02-11T02:01:25.591Z,-7.86
2023-02-11T02:03:59.795Z,-7.53
2023-02-11T02:06:35.556Z,-7.65
2023-02-11T02:09:07.959Z,-7.89
2023-02-11T02:11:36.219Z,-8.04
2023-02-11T02:14:03.936Z,-7.82
2023-02-11T02:16:36.840Z,-8.17
2023-02-11T02:19:31.897Z,-8.24
2023-02-11T02:22:17.587Z,-8.04
2023-02-11T02:25:05.917Z,-8.31
2023-02-11T02:28:04.063Z,-8.03
2023-02-11T02:31:24.995Z,-8.03
2023-02-11T02:34:16.310Z,-7.74
2023-02-11T02:37:06.123Z,-7.48
2023-02-11T02:39:37.315Z,-7.65
2023-02-11T02:42:08.219Z,-8.04
2023-02-11T02:44:35.960Z,-8.02
2023-02-11T02:47:06.039Z,-8.25
2023-02-11T02:49:33.408Z,-8.10
2023-02-11T02:52:13.136Z,-8.52
2023-02-11T02:55:06.856Z,-8.57
2023-02-11T02:57:53.962Z,-8.50
2023-02-11T03:00:31.339Z,-8.64
2023-02-11T03:03:26.647Z,-8.72
2023-02-11T03:06:03.484Z,-8.09
2023-02-11T03:09:03.433Z,-8.56
2023-02-11T03:11:30.964Z,-8.24
2023-02-11T03:14:04.604Z,-8.09
2023-02-11T03:16:33.581Z,-8.51
2023-02-11T03:19:06.313Z,-8.74
2023-02-11T03:21:42.468Z,-8.82
2023-02-11T03:24:30.975Z,-8.92
2023-02-11T03:27:04.938Z,-8.73
2023-02-11T03:29:59.345Z,-8.82
2023-02-11T03:32:38.456Z,-9.09
2023-02-11T03:35:17.302Z,-8.84
2023-02-11T03:37:57.082Z,-9.00
2023-02-11T03:40:32.642Z,-9.22
2023-02-11T03:43:14.955Z,-9.00
2023-02-11T03:45:48.407Z,-8.83
2023-02-11T03:48:24.733Z,-8.98
2023-02-11T03:50:54.025Z,-9.38
2023-02-11T03:53:22.827Z,-9.01
2023-02-11T03:55:52.451Z,-8.75
2023-02-11T03:58:20.115Z,-8.75
2023-02-11T04:00:48.789Z,-8.86
2023-02-11T04:03:16.224Z,-8.96
2023-02-11T04:05:43.506Z,-8.61
2023-02-11T04:08:17.040Z,-8.69
2023-02-11T04:10:44.304Z,-8.74
2023-02-11T04:13:11.687Z,-8.51
2023-02-11T04:15:38.973Z,-8.41
2023-02-11T04:18:09.077Z,-8.85
2023-02-11T04:20:37.139Z,-8.84
2023-02-11T04:23:08.860Z,-8.96
2023-02-11T04:25:36.538Z,-8.70
2023-02-11T04:28:15.428Z,-8.78
2023-02-11T04:30:51.033Z,-9.14
2023-02-11T04:33:18.472Z,-8.90
2023-02-11T04:35:49.550Z,-9.15
2023-02-11T04:38:21.145Z,-9.16
2023-02-11T04:40:51.763Z,-9.42
2023-02-11T04:43:19.697Z,-9.34
2023-02-11T04:45:47.627Z,-5.46
2023-02-11T04:48:18.216Z,-1.74
2023-02-11T04:50:49.268Z,-2.83
2023-02-11T04:53:20.041Z,-3.66
2023-02-11T04:55:51.634Z,-4.96
2023-02-11T04:58:20.013Z,-6.77
2023-02-11T05:00:48.020Z,-8.23
2023-02-11T05:03:16.620Z,-9.03
2023-02-11T05:05:44.162Z,-9.94
2023-02-11T05:08:11.543Z,-9.99
2023-02-11T05:10:39.312Z,-10.08
2023-02-11T05:13:09.694Z,-10.06
2023-02-11T05:15:36.955Z,-10.33
2023-02-11T05:18:04.450Z,-9.96
2023-02-11T05:20:31.686Z,-9.48
2023-02-11T05:23:01.787Z,-9.18
2023-02-11T05:25:38.040Z,-9.46
2023-02-11T05:28:08.747Z,-9.15
2023-02-11T05:30:36.115Z,-9.10
2023-02-11T05:33:03.464Z,-9.19
2023-02-11T05:35:36.344Z,-9.79
2023-02-11T05:38:08.070Z,-9.76
2023-02-11T05:40:35.567Z,-9.41
2023-02-11T05:43:03.411Z,-9.29
2023-02-11T05:45:31.374Z,-9.23
2023-02-11T05:48:01.837Z,-9.42
2023-02-11T05:50:29.644Z,-9.26
2023-02-11T05:53:02.480Z,-9.65
2023-02-11T05:55:35.820Z,-9.92
2023-02-11T05:58:11.539Z,-9.83
2023-02-11T06:00:42.061Z,-10.00
2023-02-11T06:03:09.805Z,-10.22
2023-02-11T06:05:38.249Z,-9.90
2023-02-11T06:08:11.286Z,-9.50
2023-02-11T06:10:45.138Z,-8.68
2023-02-11T06:13:18.331Z,-8.06
2023-02-11T06:15:57.384Z,-7.91
2023-02-11T06:18:25.138Z,-7.85
2023-02-11T06:20:52.742Z,-7.47
2023-02-11T06:23:30.318Z,-7.27
2023-02-11T06:26:03.190Z,-6.90
2023-02-11T06:28:30.590Z,-7.25
2023-02-11T06:31:04.907Z,-7.22
2023-02-11T06:33:36.072Z,-5.95
2023-02-11T06:36:05.213Z,-6.39
2023-02-11T06:38:35.687Z,-6.13
2023-02-11T06:41:06.570Z,-6.65
2023-02-11T06:43:40.073Z,-6.32
2023-02-11T06:46:08.753Z,-6.50
2023-02-11T06:48:36.665Z,-6.35
2023-02-11T06:51:14.213Z,-5.10
2023-02-11T06:53:46.067Z,-6.08
2023-02-11T06:56:19.458Z,-6.70
2023-02-11T06:58:56.542Z,-6.62
2023-02-11T07:01:29.957Z,-5.72
2023-02-11T07:04:00.546Z,-5.10
2023-02-11T07:06:28.009Z,-5.25
2023-02-11T07:09:01.470Z,-5.50
2023-02-11T07:11:37.840Z,-4.87
2023-02-11T07:14:10.470Z,-5.17
2023-02-11T07:16:40.683Z,-4.90
2023-02-11T07:19:08.826Z,-4.20
2023-02-11T07:21:36.359Z,-3.88
2023-02-11T07:24:10.691Z,-3.63
2023-02-11T07:26:38.654Z,-3.97
2023-02-11T07:29:09.012Z,-4.07
2023-02-11T07:31:45.271Z,-4.22
2023-02-11T07:34:15.991Z,-4.15
2023-02-11T07:36:46.578Z,-4.03
2023-02-11T07:39:20.197Z,-4.17
2023-02-11T07:41:50.226Z,-4.57
2023-02-11T07:44:20.857Z,-3.62
2023-02-11T07:46:51.243Z,-4.44
2023-02-11T07:49:21.769Z,-4.41
2023-02-11T07:51:52.876Z,-3.63
2023-02-11T07:54:23.570Z,-3.44
2023-02-11T07:56:53.502Z,-3.41
2023-02-11T07:59:20.826Z,-3.92
2023-02-11T08:01:51.414Z,-2.80
2023-02-11T08:04:21.672Z,-2.18
2023-02-11T08:06:56.551Z,-2.09
2023-02-11T08:09:25.191Z,-1.99
2023-02-11T08:11:55.405Z,-1.49
2023-02-11T08:14:22.723Z,-1.46
2023-02-11T08:16:53.033Z,-1.12
2023-02-11T08:19:23.347Z,-1.46
2023-02-11T08:21:58.707Z,-1.82
2023-02-11T08:24:28.714Z,-1.86
2023-02-11T08:26:58.761Z,-1.99
2023-02-11T08:29:28.040Z,-2.39
2023-02-11T08:31:55.635Z,-2.10
2023-02-11T08:34:26.383Z,-1.67
2023-02-11T08:36:56.704Z,-1.59
2023-02-11T08:39:24.115Z,-1.73
2023-02-11T08:41:54.364Z,-1.53
2023-02-11T08:44:23.864Z,-1.60
2023-02-11T08:46:54.807Z,-1.57
2023-02-11T08:49:22.421Z,-1.98
2023-02-11T08:51:50.242Z,-2.22
2023-02-11T08:54:18.104Z,-2.28
2023-02-11T08:56:50.894Z,-2.30
2023-02-11T08:59:21.053Z,-1.98
2023-02-11T09:01:49.178Z,-1.98
2023-02-11T09:04:20.009Z,-1.81
2023-02-11T09:06:47.275Z,-1.45
2023-02-11T09:09:15.799Z,-1.01
2023-02-11T09:11:46.440Z,-1.37
2023-02-11T09:14:22.163Z,-1.65
2023-02-11T09:16:50.266Z,-1.33
2023-02-11T09:19:18.214Z,-1.03
2023-02-11T09:21:46.201Z,-0.61
2023-02-11T09:24:13.468Z,-1.20
2023-02-11T09:26:42.592Z,-0.89
2023-02-11T09:29:12.952Z,-0.42
2023-02-11T09:31:40.428Z,-0.56
2023-02-11T09:34:07.895Z,-0.64
2023-02-11T09:36:38.357Z,-0.64
2023-02-11T09:39:16.506Z,-0.42
2023-02-11T09:41:55.774Z,-0.24
2023-02-11T09:44:32.750Z,-1.15
2023-02-11T09:47:04.365Z,-1.20
2023-02-11T09:50:03.833Z,-1.27
2023-02-11T09:52:40.039Z,-0.95
2023-02-11T09:55:43.432Z,-0.51
2023-02-11T09:58:16.469Z,-0.73
2023-02-11T10:00:57.543Z,-0.67
2023-02-11T10:04:07.355Z,-0.49
2023-02-11T10:06:57.716Z,-0.49
2023-02-11T10:09:50.309Z,-0.38
2023-02-11T10:12:26.815Z,-0.19
2023-02-11T10:15:26.080Z,-0.51
2023-02-11T10:18:14.702Z,-0.08
2023-02-11T10:21:19.609Z,0.01
2023-02-11T10:23:51.193Z,-0.09
2023-02-11T10:26:19.652Z,-0.29
2023-02-11T10:28:55.757Z,-0.11
2023-02-11T10:31:29.320Z,0.08
2023-02-11T10:34:02.549Z,-0.07
2023-02-11T10:36:33.891Z,0.07
2023-02-11T10:39:10.273Z,0.33
2023-02-11T10:41:43.654Z,0.16
2023-02-11T10:44:23.169Z,0.51
2023-02-11T10:46:51.831Z,0.71
2023-02-11T10:49:34.430Z,0.86
2023-02-11T10:52:26.991Z,1.06
2023-02-11T10:55:09.426Z,1.14
2023-02-11T10:57:41.611Z,0.97
2023-02-11T11:00:23.574Z,1.09
2023-02-11T11:03:01.481Z,1.12
2023-02-11T11:05:52.760Z,0.85
2023-02-11T11:08:38.432Z,1.10
2023-02-11T11:11:11.441Z,1.19
2023-02-11T11:13:53.316Z,1.31
2023-02-11T11:16:31.943Z,1.27
2023-02-11T11:19:08.323Z,1.54
2023-02-11T11:21:47.081Z,1.57
2023-02-11T11:24:33.384Z,1.51
2023-02-11T11:27:04.170Z,1.78
2023-02-11T11:29:42.771Z,2.10
2023-02-11T11:32:15.613Z,2.10
2023-02-11T11:35:04.267Z,2.54
2023-02-11T11:37:34.231Z,3.01
2023-02-11T11:40:22.937Z,2.86
2023-02-11T11:43:17.453Z,2.68
2023-02-11T11:45:59.504Z,2.96
2023-02-11T11:48:42.754Z,3.22
2023-02-11T11:51:11.708Z,3.19
2023-02-11T11:53:51.482Z,2.98
2023-02-11T11:56:27.471Z,3.07
2023-02-11T11:58:54.845Z,3.10
2023-02-11T12:01:52.076Z,2.62
2023-02-11T12:04:35.200Z,2.74
2023-02-11T12:07:10.684Z,2.96
2023-02-11T12:10:17.789Z,3.07
2023-02-11T12:12:57.048Z,3.31
2023-02-11T12:15:34.630Z,3.25
2023-02-11T12:18:29.207Z,3.22
2023-02-11T12:21:08.294Z,3.49
2023-02-11T12:23:58.575Z,2.79
2023-02-11T12:26:44.231Z,2.39
2023-02-11T12:29:30.742Z,2.79
2023-02-11T12:32:16.595Z,3.06
2023-02-11T12:35:31.954Z,3.36
2023-02-11T12:38:23.685Z,3.58
2023-02-11T12:41:15.145Z,3.48
2023-02-11T12:43:45.644Z,3.17
2023-02-11T12:46:18.806Z,2.97
2023-02-11T12:49:07.332Z,2.61
2023-02-11T12:51:49.235Z,2.40
2023-02-11T12:54:29.397Z,3.01
2023-02-11T12:57:02.895Z,2.77
2023-02-11T12:59:51.122Z,2.61
2023-02-11T13:02:40.873Z,2.31
2023-02-11T13:05:52.949Z,2.57
2023-02-11T13:08:24.173Z,2.49
2023-02-11T13:11:00.538Z,2.42
2023-02-11T13:13:52.453Z,2.36
2023-02-11T13:16:22.647Z,2.21
2023-02-11T13:18:57.493Z,2.23
2023-02-11T13:21:51.743Z,2.24
2023-02-11T13:24:34.606Z,2.25
2023-02-11T13:27:16.540Z,2.76
2023-02-11T13:30:29.725Z,3.14
2023-02-11T13:33:46.076Z,2.33
2023-02-11T13:36:19.136Z,2.56
2023-02-11T13:38:57.619Z,2.63
2023-02-11T13:41:31.080Z,2.47
2023-02-11T13:44:10.356Z,2.18
2023-02-11T13:46:59.252Z,2.27
2023-02-11T13:49:42.108Z,2.40
2023-02-11T13:52:37.305Z,2.63
2023-02-11T13:55:21.384Z,2.33
2023-02-11T13:58:29.314Z,2.28
2023-02-11T14:01:00.005Z,2.42
2023-02-11T14:03:34.517Z,2.23
2023-02-11T14:06:12.070Z,2.11
2023-02-11T14:09:13.957Z,2.39
2023-02-11T14:11:41.226Z,2.23
2023-02-11T14:14:20.978Z,2.30
2023-02-11T14:17:00.520Z,2.21
2023-02-11T14:19:37.265Z,2.54
2023-02-11T14:22:12.129Z,2.71
2023-02-11T14:25:01.650Z,2.53
2023-02-11T14:27:56.926Z,2.29
2023-02-11T14:30:43.843Z,2.11
2023-02-11T14:33:19.931Z,2.18
2023-02-11T14:36:29.496Z,2.23
2023-02-11T14:39:35.647Z,2.55
2023-02-11T14:42:15.212Z,2.48
2023-02-11T14:44:48.431Z,2.15
2023-02-11T14:47:20.633Z,2.12
2023-02-11T14:49:56.684Z,2.14
2023-02-11T14:52:40.450Z,2.24
2023-02-11T14:55:29.516Z,2.48
2023-02-11T14:58:33.307Z,2.25
2023-02-11T15:01:19.940Z,2.01
2023-02-11T15:03:49.380Z,1.73
2023-02-11T15:06:21.566Z,1.77
2023-02-11T15:08:57.805Z,1.71
2023-02-11T15:11:25.690Z,1.71
2023-02-11T15:13:58.217Z,1.85
2023-02-11T15:16:29.963Z,1.89
2023-02-11T15:19:02.740Z,1.76
2023-02-11T15:21:33.994Z,1.79
2023-02-11T15:24:25.767Z,1.66
2023-02-11T15:27:02.078Z,1.54
2023-02-11T15:29:39.828Z,1.41
2023-02-11T15:32:19.600Z,1.36
2023-02-11T15:34:48.613Z,1.29
2023-02-11T15:37:24.744Z,1.28
2023-02-11T15:39:53.688Z,1.28
2023-02-11T15:42:22.665Z,1.28
2023-02-11T15:45:09.640Z,1.31
2023-02-11T15:47:38.252Z,4.34
2023-02-11T15:50:07.406Z,2.84
2023-02-11T15:52:38.607Z,1.90
2023-02-11T15:55:06.268Z,1.71
2023-02-11T15:57:34.018Z,1.54
2023-02-11T16:00:01.271Z,4.03
2023-02-11T16:02:35.803Z,1.90
2023-02-11T16:05:09.075Z,1.57
2023-02-11T16:07:41.028Z,1.16
2023-02-11T16:10:17.573Z,0.97
2023-02-11T16:13:04.493Z,0.99
2023-02-11T16:15:41.761Z,0.94
2023-02-11T16:18:38.283Z,0.75
2023-02-11T16:21:17.761Z,0.80
2023-02-11T16:23:57.775Z,0.82
2023-02-11T16:26:32.526Z,0.95
2023-02-11T16:29:05.030Z,0.93
2023-02-11T16:31:43.125Z,0.80
2023-02-11T16:34:25.612Z,0.64
2023-02-11T16:37:02.997Z,0.54
2023-02-11T16:39:33.959Z,0.68
2023-02-11T16:42:01.724Z,0.74
2023-02-11T16:44:39.024Z,0.68
2023-02-11T16:47:19.230Z,0.59
2023-02-11T16:49:47.058Z,0.67
2023-02-11T16:52:20.134Z,0.60
2023-02-11T16:54:51.835Z,0.61
2023-02-11T16:57:24.610Z,0.57
2023-02-11T16:59:57.854Z,0.68
2023-02-11T17:02:27.372Z,0.59
2023-02-11T17:05:00.724Z,0.61
2023-02-11T17:07:46.737Z,0.59
2023-02-11T17:10:23.932Z,0.58
2023-02-11T17:12:53.672Z,0.58
2023-02-11T17:15:20.977Z,0.59
2023-02-11T17:17:48.613Z,0.59
2023-02-11T17:20:21.538Z,0.69
2023-02-11T17:22:51.507Z,0.69
2023-02-11T17:25:21.648Z,0.72
2023-02-11T17:27:51.217Z,0.87
2023-02-11T17:30:23.083Z,0.90
2023-02-11T17:32:54.499Z,0.85
2023-02-11T17:35:21.830Z,0.89
2023-02-11T17:37:55.530Z,0.94
2023-02-11T17:40:31.954Z,1.95
2023-02-11T17:43:04.940Z,2.13
2023-02-11T17:45:43.830Z,1.44
2023-02-11T17:48:14.516Z,1.30
2023-02-11T17:50:42.229Z,0.99
2023-02-11T17:53:12.851Z,0.77
2023-02-11T17:55:43.840Z,0.70
2023-02-11T17:58:12.044Z,0.59
2023-02-11T18:00:41.878Z,0.56
2023-02-11T18:03:09.826Z,0.31
2023-02-11T18:05:40.661Z,0.41
2023-02-11T18:08:08.554Z,0.46
2023-02-11T18:10:41.098Z,5.74
2023-02-11T18:13:08.369Z,3.86
2023-02-11T18:15:35.668Z,2.02
2023-02-11T18:18:03.126Z,6.56
2023-02-11T18:20:30.434Z,5.13
2023-02-11T18:22:57.751Z,3.04
2023-02-11T18:25:25.333Z,1.79
2023-02-11T18:27:52.601Z,1.37
2023-02-11T18:30:20.836Z,0.99
2023-02-11T18:32:48.412Z,0.82
2023-02-11T18:35:16.576Z,0.67
2023-02-11T18:37:43.867Z,0.55
2023-02-11T18:40:12.849Z,0.54
2023-02-11T18:42:40.619Z,0.47
2023-02-11T18:45:11.074Z,0.49
2023-02-11T18:47:39.150Z,1.20
2023-02-11T18:50:08.496Z,0.82
2023-02-11T18:52:36.757Z,0.94
2023-02-11T18:55:08.313Z,0.76
2023-02-11T18:57:35.560Z,0.69
2023-02-11T19:00:03.088Z,0.73
2023-02-11T19:02:30.389Z,0.71
2023-02-11T19:04:57.798Z,0.69
2023-02-11T19:07:25.236Z,0.67
2023-02-11T19:09:52.486Z,0.76
2023-02-11T19:12:19.738Z,0.67
2023-02-11T19:14:46.979Z,0.75
2023-02-11T19:17:14.251Z,0.84
2023-02-11T19:19:42.385Z,0.98
2023-02-11T19:22:10.765Z,0.91
2023-02-11T19:24:38.868Z,0.87
2023-02-11T19:27:06.122Z,0.75
2023-02-11T19:29:33.415Z,0.78
2023-02-11T19:32:02.197Z,0.79
2023-02-11T19:34:29.624Z,0.75
2023-02-11T19:36:57.265Z,0.81
2023-02-11T19:39:26.924Z,0.70
2023-02-11T19:41:54.570Z,0.64
2023-02-11T19:44:22.013Z,0.73
2023-02-11T19:46:49.341Z,0.69
2023-02-11T19:49:17.832Z,0.70
2023-02-11T19:51:45.134Z,0.65
2023-02-11T19:54:12.926Z,0.75
2023-02-11T19:56:40.249Z,0.73
2023-02-11T19:59:07.438Z,0.68
2023-02-11T20:01:35.302Z,0.87
2023-02-11T20:04:03.042Z,0.86
2023-02-11T20:06:31.724Z,0.80
2023-02-11T20:09:07.392Z,0.73
2023-02-11T20:11:35.060Z,0.79
2023-02-11T20:14:03.321Z,0.82
2023-02-11T20:16:46.878Z,0.88
2023-02-11T20:19:19.648Z,0.56
2023-02-11T20:21:48.625Z,0.54
2023-02-11T20:24:17.969Z,0.66
2023-02-11T20:26:46.155Z,0.63
2023-02-11T20:29:14.729Z,0.49
2023-02-11T20:31:42.368Z,0.50
2023-02-11T20:34:10.841Z,0.42
2023-02-11T20:36:38.172Z,0.30
2023-02-11T20:39:06.480Z,0.52
2023-02-11T20:41:36.302Z,0.54
2023-02-11T20:44:06.014Z,0.45
2023-02-11T20:46:34.613Z,0.44
2023-02-11T20:49:02.377Z,0.32
2023-02-11T20:51:32.788Z,0.28
2023-02-11T20:54:00.850Z,0.39
2023-02-11T20:56:31.452Z,0.39
2023-02-11T20:59:00.300Z,0.33
2023-02-11T21:01:55.218Z,0.46
2023-02-11T21:04:30.512Z,0.54
2023-02-11T21:07:01.049Z,2.64
2023-02-11T21:09:31.854Z,1.62
2023-02-11T21:12:05.571Z,0.94
2023-02-11T21:14:32.935Z,0.71
2023-02-11T21:17:00.405Z,0.50
2023-02-11T21:19:27.723Z,0.40
2023-02-11T21:21:55.091Z,0.37
2023-02-11T21:24:26.087Z,0.24
2023-02-11T21:26:56.305Z,0.04
2023-02-11T21:29:26.534Z,-0.02
2023-02-11T21:31:53.800Z,-0.12
2023-02-11T21:34:24.359Z,-0.15
2023-02-11T21:36:54.454Z,-0.18
2023-02-11T21:39:28.452Z,-0.09
2023-02-11T21:41:58.399Z,0.02
2023-02-11T21:44:25.922Z,-0.19
2023-02-11T21:46:55.810Z,-0.18
2023-02-11T21:49:23.330Z,0.00
2023-02-11T21:51:50.672Z,0.32
2023-02-11T21:54:18.174Z,-0.03
2023-02-11T21:56:49.477Z,0.10
2023-02-11T21:59:17.225Z,0.08
2023-02-11T22:01:45.797Z,0.01
2023-02-11T22:04:15.744Z,0.08
2023-02-11T22:06:49.076Z,0.10
2023-02-11T22:09:29.647Z,-0.08
2023-02-11T22:11:56.881Z,-0.12
2023-02-11T22:14:24.705Z,0.14
2023-02-11T22:16:51.983Z,0.11
2023-02-11T22:19:19.499Z,0.01
2023-02-11T22:21:46.799Z,0.14
2023-02-11T22:24:14.081Z,0.24
2023-02-11T22:26:41.587Z,0.10
2023-02-11T22:29:08.966Z,0.14
2023-02-11T22:31:36.798Z,0.03
2023-02-11T22:34:05.786Z,0.06
2023-02-11T22:36:35.821Z,0.05
2023-02-11T22:39:12.447Z,-0.05
2023-02-11T22:41:45.380Z,-0.01
2023-02-11T22:44:13.861Z,0.09
2023-02-11T22:46:43.464Z,-0.05
2023-02-11T22:49:13.558Z,-0.31
2023-02-11T22:51:40.896Z,-0.28
2023-02-11T22:54:12.666Z,-0.30
2023-02-11T22:56:40.248Z,-0.26
2023-02-11T22:59:11.137Z,-0.22
2023-02-11T23:01:38.883Z,-0.23
2023-02-11T23:04:08.660Z,-0.04
2023-02-11T23:06:35.939Z,-0.19
2023-02-11T23:09:04.890Z,-0.17
2023-02-11T23:11:32.302Z,-0.26
2023-02-11T23:14:00.865Z,-0.29
2023-02-11T23:16:31.262Z,-0.21
2023-02-11T23:19:00.583Z,-0.09
2023-02-11T23:21:30.834Z,-0.38
2023-02-11T23:24:00.706Z,-0.33
2023-02-11T23:26:30.595Z,-0.27
2023-02-11T23:28:59.338Z,-0.06
2023-02-11T23:31:33.973Z,-0.11
2023-02-11T23:34:01.723Z,-0.16
2023-02-11T23:36:30.897Z,-0.27
2023-02-11T23:39:03.995Z,-0.19
2023-02-11T23:41:34.838Z,0.02
2023-02-11T23:44:04.972Z,-0.15
2023-02-11T23:46:32.261Z,-0.41
2023-02-11T23:49:00.109Z,-0.65
2023-02-11T23:51:30.605Z,-0.45
2023-02-11T23:54:04.597Z,-0.30
2023-02-11T23:56:31.960Z,-0.24
2023-02-11T23:58:59.565Z,-0.22
